Time;durP1;ratioP1;P1;durP2;ratioP2;P2;SDS_P1;SDS_P2;PMS_P1;PMS_P2;Temp;Humidity;BMP_temperature;BMP_pressure;BME280_temperature;BME280_humidity;BME280_pressure;Samples;Min_cycle;Max_cycle;Signal;HPM_P1;HPM_P2
2023/10/24 00:00:52;;;;;;;8.77;7.10;;;;;;;;;;5023900;28;20434;-77
2023/10/24 00:03:20;;;;;;;9.57;7.35;;;;;;;;;;5043708;28;20430;-77
2023/10/24 00:05:48;;;;;;;8.70;6.93;;;;;;;;;;5013021;28;20440;-77
2023/10/24 00:08:15;;;;;;;8.43;6.40;;;;;;;;;;5051428;28;20640;-77
2023/10/24 00:10:45;;;;;;;9.77;6.90;;;;;;;;;;5010171;28;20435;-77
2023/10/24 00:13:13;;;;;;;9.75;6.82;;;;;;;;;;5017981;28;20447;-77
2023/10/24 00:15:40;;;;;;;10.18;7.18;;;;;;;;;;5047801;28;20438;-77
2023/10/24 00:18:13;;;;;;;8.30;6.80;;;;;;;;;;5014182;28;20427;-77
2023/10/24 00:20:42;;;;;;;9.70;6.57;;;;;;;;;;5018140;28;20449;-77
2023/10/24 00:23:10;;;;;;;9.67;6.63;;;;;;;;;;5020633;28;20903;-77
2023/10/24 00:25:37;;;;;;;9.88;6.70;;;;;;;;;;5016053;28;20442;-77
2023/10/24 00:28:07;;;;;;;9.60;7.00;;;;;;;;;;5044732;28;20438;-77
2023/10/24 00:30:35;;;;;;;10.35;6.93;;;;;;;;;;5011009;28;20450;-77
2023/10/24 00:33:02;;;;;;;12.03;7.30;;;;;;;;;;5015838;28;20496;-77
2023/10/24 00:35:35;;;;;;;11.43;6.90;;;;;;;;;;5014880;28;20444;-77
2023/10/24 00:38:03;;;;;;;7.95;6.78;;;;;;;;;;5017051;28;20453;-77
2023/10/24 00:40:33;;;;;;;8.27;6.70;;;;;;;;;;5046540;28;20433;-77
2023/10/24 00:43:04;;;;;;;9.40;6.93;;;;;;;;;;5031168;28;20443;-77
2023/10/24 00:45:32;;;;;;;9.27;6.60;;;;;;;;;;5008583;28;20446;-77
2023/10/24 00:48:00;;;;;;;7.90;6.28;;;;;;;;;;5018687;28;20441;-77
2023/10/24 00:50:27;;;;;;;7.20;6.30;;;;;;;;;;5051940;28;20437;-77
2023/10/24 00:52:54;;;;;;;8.48;6.22;;;;;;;;;;5051116;28;20943;-77
2023/10/24 00:55:22;;;;;;;8.38;6.25;;;;;;;;;;5006603;28;20816;-77
2023/10/24 00:57:51;;;;;;;8.57;6.30;;;;;;;;;;5052088;28;20433;-77
2023/10/24 01:00:19;;;;;;;9.43;6.18;;;;;;;;;;5011199;28;20445;-77
2023/10/24 01:02:47;;;;;;;10.93;6.05;;;;;;;;;;5014575;28;20443;-77
2023/10/24 01:05:17;;;;;;;8.70;6.43;;;;;;;;;;5014467;28;20656;-77
2023/10/24 01:07:45;;;;;;;7.40;5.90;;;;;;;;;;5052558;28;20431;-77
2023/10/24 01:10:13;;;;;;;8.48;5.82;;;;;;;;;;5016826;28;20597;-77
2023/10/24 01:12:40;;;;;;;6.25;5.57;;;;;;;;;;5043475;28;20938;-77
2023/10/24 01:15:07;;;;;;;8.05;5.78;;;;;;;;;;5042807;28;20465;-77
2023/10/24 01:17:35;;;;;;;6.30;5.22;;;;;;;;;;5059082;28;20434;-77
2023/10/24 01:20:02;;;;;;;6.40;5.80;;;;;;;;;;5038536;28;20515;-77
2023/10/24 01:22:29;;;;;;;7.60;5.85;;;;;;;;;;5052614;28;20443;-78
2023/10/24 01:24:57;;;;;;;7.13;5.68;;;;;;;;;;5022797;28;20431;-78
2023/10/24 01:27:24;;;;;;;6.78;6.07;;;;;;;;;;5044430;28;20435;-78
2023/10/24 01:29:51;;;;;;;9.35;6.40;;;;;;;;;;5051820;28;20917;-78
2023/10/24 01:32:18;;;;;;;8.55;6.35;;;;;;;;;;5045997;28;20927;-78
2023/10/24 01:34:46;;;;;;;8.55;6.57;;;;;;;;;;5045727;28;20446;-78
2023/10/24 01:37:13;;;;;;;8.65;6.80;;;;;;;;;;5021829;28;20481;-78
2023/10/24 01:39:40;;;;;;;7.90;6.70;;;;;;;;;;5050207;28;20458;-78
2023/10/24 01:42:07;;;;;;;10.43;7.03;;;;;;;;;;5051093;28;20522;-78
2023/10/24 01:44:37;;;;;;;7.93;6.40;;;;;;;;;;5048173;28;20439;-78
2023/10/24 01:47:05;;;;;;;9.32;7.13;;;;;;;;;;5050173;28;20484;-78
2023/10/24 01:49:32;;;;;;;11.60;7.00;;;;;;;;;;5047717;28;20433;-78
2023/10/24 01:52:00;;;;;;;10.52;6.68;;;;;;;;;;5022651;28;20430;-78
2023/10/24 01:54:27;;;;;;;9.37;6.70;;;;;;;;;;5040960;28;20498;-78
2023/10/24 01:56:54;;;;;;;8.57;6.20;;;;;;;;;;5013462;28;20440;-78
2023/10/24 01:59:21;;;;;;;10.20;6.93;;;;;;;;;;5014871;28;20985;-78
2023/10/24 02:01:48;;;;;;;7.67;6.37;;;;;;;;;;5019962;28;20443;-78
2023/10/24 02:04:15;;;;;;;10.15;6.30;;;;;;;;;;5019288;28;20435;-78
2023/10/24 02:06:43;;;;;;;9.95;6.97;;;;;;;;;;5039135;28;20429;-78
2023/10/24 02:09:11;;;;;;;9.18;6.22;;;;;;;;;;5030945;28;20442;-78
2023/10/24 02:11:38;;;;;;;9.75;6.28;;;;;;;;;;5009384;28;20498;-78
2023/10/24 02:14:05;;;;;;;11.38;6.50;;;;;;;;;;5057480;28;20436;-78
2023/10/24 02:16:32;;;;;;;9.23;6.20;;;;;;;;;;5052137;28;20545;-79
2023/10/24 02:18:59;;;;;;;8.68;6.43;;;;;;;;;;5017169;28;20425;-78
2023/10/24 02:21:26;;;;;;;7.63;5.75;;;;;;;;;;5030927;28;20513;-78
2023/10/24 02:23:53;;;;;;;8.80;6.50;;;;;;;;;;5027042;28;20925;-78
2023/10/24 02:26:21;;;;;;;8.13;6.30;;;;;;;;;;5033368;28;20430;-78
2023/10/24 02:28:51;;;;;;;8.80;6.40;;;;;;;;;;5026111;28;20524;-78
2023/10/24 02:31:18;;;;;;;12.05;6.75;;;;;;;;;;5053850;28;21005;-78
2023/10/24 02:33:48;;;;;;;7.25;6.20;;;;;;;;;;5028737;28;20535;-78
2023/10/24 02:36:18;;;;;;;8.82;6.63;;;;;;;;;;5058818;28;20475;-78
2023/10/24 02:38:45;;;;;;;8.63;5.85;;;;;;;;;;5050785;28;20852;-78
2023/10/24 02:41:15;;;;;;;8.98;6.38;;;;;;;;;;5052900;28;20485;-78
2023/10/24 02:43:42;;;;;;;8.80;6.35;;;;;;;;;;5030434;28;20442;-78
2023/10/24 02:46:09;;;;;;;8.35;6.68;;;;;;;;;;5022617;28;20524;-78
2023/10/24 02:48:36;;;;;;;8.77;6.32;;;;;;;;;;5040516;28;20434;-78
2023/10/24 02:51:04;;;;;;;11.77;6.97;;;;;;;;;;5024419;28;20427;-78
2023/10/24 02:53:31;;;;;;;9.73;6.57;;;;;;;;;;5010885;28;20863;-78
2023/10/24 02:56:01;;;;;;;8.93;6.45;;;;;;;;;;5048853;28;20446;-78
2023/10/24 02:58:29;;;;;;;12.70;7.03;;;;;;;;;;5018332;28;20447;-77
2023/10/24 03:00:56;;;;;;;8.73;6.40;;;;;;;;;;5043969;28;20433;-78
2023/10/24 03:03:24;;;;;;;10.13;6.65;;;;;;;;;;5013815;28;20892;-78
2023/10/24 03:05:51;;;;;;;7.70;6.30;;;;;;;;;;5051013;28;20833;-77
2023/10/24 03:08:18;;;;;;;8.45;6.30;;;;;;;;;;5044880;28;22555;-77
2023/10/24 03:10:46;;;;;;;10.25;6.63;;;;;;;;;;5020267;28;20444;-77
2023/10/24 03:13:13;;;;;;;12.27;7.10;;;;;;;;;;5050929;28;20479;-77
2023/10/24 03:15:41;;;;;;;8.18;6.43;;;;;;;;;;5014790;28;21014;-77
2023/10/24 03:18:11;;;;;;;7.53;6.75;;;;;;;;;;5032445;28;20434;-77
2023/10/24 03:20:41;;;;;;;7.50;6.80;;;;;;;;;;5053374;28;20438;-77
2023/10/24 03:23:09;;;;;;;10.10;6.72;;;;;;;;;;5019263;28;20445;-77
2023/10/24 03:25:42;;;;;;;9.65;7.10;;;;;;;;;;5019653;28;20913;-77
2023/10/24 03:28:09;;;;;;;7.87;6.83;;;;;;;;;;5015794;28;20436;-77
2023/10/24 03:30:39;;;;;;;10.75;7.13;;;;;;;;;;5017442;28;20435;-77
2023/10/24 03:33:07;;;;;;;11.57;7.18;;;;;;;;;;5050171;28;20514;-77
2023/10/24 03:35:34;;;;;;;10.00;7.07;;;;;;;;;;5038601;28;20436;-77
2023/10/24 03:38:01;;;;;;;7.93;7.13;;;;;;;;;;5056960;28;20520;-77
2023/10/24 03:40:28;;;;;;;11.55;7.32;;;;;;;;;;5007222;28;20448;-77
2023/10/24 03:42:56;;;;;;;8.98;7.40;;;;;;;;;;5019455;28;20435;-77
2023/10/24 03:45:23;;;;;;;10.15;7.43;;;;;;;;;;5029012;28;20485;-77
2023/10/24 03:47:52;;;;;;;13.13;7.13;;;;;;;;;;5018273;28;20497;-77
2023/10/24 03:50:19;;;;;;;10.75;7.13;;;;;;;;;;5019417;28;20457;-77
2023/10/24 03:52:48;;;;;;;10.65;7.47;;;;;;;;;;5019953;28;20443;-77
2023/10/24 03:55:16;;;;;;;8.70;7.57;;;;;;;;;;5048507;28;20703;-77
2023/10/24 03:57:43;;;;;;;10.93;7.47;;;;;;;;;;5040206;28;20447;-77
2023/10/24 04:00:10;;;;;;;10.98;7.65;;;;;;;;;;5010883;28;20471;-77
2023/10/24 04:02:37;;;;;;;10.18;7.45;;;;;;;;;;5051213;28;20695;-77
2023/10/24 04:05:06;;;;;;;10.98;7.80;;;;;;;;;;5050657;28;20430;-77
2023/10/24 04:07:34;;;;;;;10.27;7.45;;;;;;;;;;5038497;28;20475;-77
2023/10/24 04:10:02;;;;;;;11.85;7.13;;;;;;;;;;5013615;28;20436;-77
2023/10/24 04:12:30;;;;;;;10.13;7.38;;;;;;;;;;5055297;28;20478;-77
2023/10/24 04:14:57;;;;;;;10.20;7.43;;;;;;;;;;5051256;28;20951;-77
2023/10/24 04:17:24;;;;;;;9.90;7.55;;;;;;;;;;5052666;28;20430;-77
2023/10/24 04:19:53;;;;;;;12.43;8.05;;;;;;;;;;5050456;28;20802;-77
2023/10/24 04:22:20;;;;;;;8.47;7.57;;;;;;;;;;5022907;28;20431;-77
2023/10/24 04:24:51;;;;;;;10.03;8.10;;;;;;;;;;5011211;28;20435;-77
2023/10/24 04:27:18;;;;;;;11.13;7.90;;;;;;;;;;5047343;28;20434;-78
2023/10/24 04:29:46;;;;;;;13.95;8.07;;;;;;;;;;5038840;28;20447;-77
2023/10/24 04:32:16;;;;;;;12.32;8.57;;;;;;;;;;5018446;28;20866;-77
2023/10/24 04:34:44;;;;;;;10.95;8.38;;;;;;;;;;5024987;28;20856;-77
2023/10/24 04:37:12;;;;;;;10.85;8.52;;;;;;;;;;5045572;28;20486;-77
2023/10/24 04:39:39;;;;;;;11.32;8.68;;;;;;;;;;5052048;28;20434;-77
2023/10/24 04:42:06;;;;;;;12.57;8.80;;;;;;;;;;5050370;28;20438;-77
2023/10/24 04:44:36;;;;;;;12.38;9.05;;;;;;;;;;5047310;28;20882;-77
2023/10/24 04:47:03;;;;;;;11.50;8.95;;;;;;;;;;5052677;28;20812;-77
2023/10/24 04:49:31;;;;;;;16.17;9.13;;;;;;;;;;5026039;28;20488;-77
2023/10/24 04:52:00;;;;;;;9.60;8.43;;;;;;;;;;5016387;28;20463;-77
2023/10/24 04:54:28;;;;;;;11.00;8.68;;;;;;;;;;5042283;28;20462;-77
2023/10/24 04:57:01;;;;;;;13.15;8.60;;;;;;;;;;5026749;28;20937;-77
2023/10/24 04:59:28;;;;;;;13.10;7.93;;;;;;;;;;5024043;28;20519;-77
2023/10/24 05:01:55;;;;;;;12.63;8.65;;;;;;;;;;5025437;28;20501;-77
2023/10/24 05:04:22;;;;;;;11.73;8.37;;;;;;;;;;5053874;28;20470;-77
2023/10/24 05:06:49;;;;;;;13.50;9.40;;;;;;;;;;5010971;28;20535;-77
2023/10/24 05:09:17;;;;;;;12.33;8.97;;;;;;;;;;5050120;28;20500;-77
2023/10/24 05:11:44;;;;;;;13.53;8.97;;;;;;;;;;5026360;28;20460;-77
2023/10/24 05:14:11;;;;;;;12.52;8.43;;;;;;;;;;5048856;28;20439;-77
2023/10/24 05:16:45;;;;;;;10.65;8.48;;;;;;;;;;5059680;28;20838;-77
2023/10/24 05:19:12;;;;;;;14.00;9.27;;;;;;;;;;5059804;28;20518;-77
2023/10/24 05:21:39;;;;;;;14.07;9.30;;;;;;;;;;5019310;28;20951;-77
2023/10/24 05:24:06;;;;;;;10.60;8.20;;;;;;;;;;5037256;28;20440;-77
2023/10/24 05:26:33;;;;;;;12.87;8.63;;;;;;;;;;5039358;28;20428;-77
2023/10/24 05:29:04;;;;;;;12.93;8.80;;;;;;;;;;5026681;28;20455;-77
2023/10/24 05:31:31;;;;;;;11.53;8.40;;;;;;;;;;5033295;28;20800;-77
2023/10/24 05:33:58;;;;;;;10.75;7.90;;;;;;;;;;5023156;28;20808;-77
2023/10/24 05:36:25;;;;;;;8.95;7.78;;;;;;;;;;5023156;28;20546;-77
2023/10/24 05:38:53;;;;;;;14.55;8.93;;;;;;;;;;5025246;28;20516;-77
2023/10/24 05:41:20;;;;;;;10.73;8.60;;;;;;;;;;5043630;28;20476;-77
2023/10/24 05:43:47;;;;;;;11.93;9.32;;;;;;;;;;5018371;28;20474;-77
2023/10/24 05:46:14;;;;;;;11.90;8.98;;;;;;;;;;5062946;28;20422;-77
2023/10/24 05:48:42;;;;;;;11.40;9.03;;;;;;;;;;5055026;28;20453;-77
2023/10/24 05:51:12;;;;;;;13.53;9.27;;;;;;;;;;5062405;28;20433;-77
2023/10/24 05:53:39;;;;;;;11.38;8.98;;;;;;;;;;5043292;28;20442;-77
2023/10/24 05:56:07;;;;;;;11.40;9.50;;;;;;;;;;5053211;28;20440;-77
2023/10/24 05:58:34;;;;;;;13.90;9.77;;;;;;;;;;5056511;28;20580;-77
2023/10/24 06:01:01;;;;;;;18.30;9.90;;;;;;;;;;5014751;28;20915;-77
2023/10/24 06:03:28;;;;;;;13.15;10.27;;;;;;;;;;5045594;28;20439;-77
2023/10/24 06:05:57;;;;;;;16.45;10.68;;;;;;;;;;5016259;28;20450;-77
2023/10/24 06:08:24;;;;;;;13.98;9.77;;;;;;;;;;5041183;28;21364;-76
2023/10/24 06:10:55;;;;;;;15.30;10.32;;;;;;;;;;5049469;28;20526;-77
2023/10/24 06:13:26;;;;;;;18.52;10.90;;;;;;;;;;5032856;28;20503;-77
2023/10/24 06:15:53;;;;;;;17.33;10.25;;;;;;;;;;5021643;28;20548;-77
2023/10/24 06:18:21;;;;;;;13.70;9.18;;;;;;;;;;5055335;28;20492;-77
2023/10/24 06:20:52;;;;;;;14.75;9.90;;;;;;;;;;5020346;28;20619;-77
2023/10/24 06:23:24;;;;;;;14.23;9.80;;;;;;;;;;5017290;28;20469;-77
2023/10/24 06:25:51;;;;;;;13.02;10.07;;;;;;;;;;5021071;28;20863;-77
2023/10/24 06:28:19;;;;;;;14.00;10.20;;;;;;;;;;5047457;28;20431;-77
2023/10/24 06:30:48;;;;;;;13.77;10.13;;;;;;;;;;5019915;28;20435;-77
2023/10/24 06:33:15;;;;;;;15.07;10.40;;;;;;;;;;5014444;28;20870;-77
2023/10/24 06:35:43;;;;;;;13.43;9.85;;;;;;;;;;5044054;28;20470;-77
2023/10/24 06:38:10;;;;;;;13.95;10.18;;;;;;;;;;5044860;28;20518;-77
2023/10/24 06:40:37;;;;;;;14.27;10.23;;;;;;;;;;5052021;28;20448;-77
2023/10/24 06:43:05;;;;;;;13.30;10.10;;;;;;;;;;5049512;28;20431;-77
2023/10/24 06:45:35;;;;;;;16.25;10.90;;;;;;;;;;5051326;28;20435;-76
2023/10/24 06:48:02;;;;;;;13.95;10.25;;;;;;;;;;5020769;28;20896;-76
2023/10/24 06:50:29;;;;;;;15.57;10.75;;;;;;;;;;5047364;28;20431;-77
2023/10/24 06:52:56;;;;;;;16.58;10.60;;;;;;;;;;5052222;28;20677;-76
2023/10/24 06:55:24;;;;;;;14.02;10.27;;;;;;;;;;5019567;28;20442;-77
2023/10/24 06:57:51;;;;;;;14.23;9.55;;;;;;;;;;5022813;28;20441;-76
2023/10/24 07:00:21;;;;;;;15.00;9.80;;;;;;;;;;5023078;28;20731;-76
2023/10/24 07:02:48;;;;;;;15.60;10.52;;;;;;;;;;5012330;28;20476;-77
2023/10/24 07:05:15;;;;;;;13.98;10.32;;;;;;;;;;5043928;28;20497;-76
2023/10/24 07:07:43;;;;;;;13.13;10.20;;;;;;;;;;5048887;28;20433;-76
2023/10/24 07:10:10;;;;;;;14.40;10.15;;;;;;;;;;5012953;28;20442;-76
2023/10/24 07:12:37;;;;;;;13.27;9.52;;;;;;;;;;5052366;28;20448;-76
2023/10/24 07:15:05;;;;;;;12.85;9.32;;;;;;;;;;5048352;28;20516;-76
2023/10/24 07:17:32;;;;;;;13.13;9.38;;;;;;;;;;5052696;28;20427;-77
2023/10/24 07:20:00;;;;;;;12.70;9.25;;;;;;;;;;5049382;28;20433;-76
2023/10/24 07:22:28;;;;;;;12.65;9.00;;;;;;;;;;5049641;28;20449;-77
2023/10/24 07:24:55;;;;;;;11.38;9.32;;;;;;;;;;5049072;28;20434;-77
2023/10/24 07:27:22;;;;;;;15.20;10.30;;;;;;;;;;5016783;28;20421;-77
2023/10/24 07:29:51;;;;;;;12.55;9.63;;;;;;;;;;5021511;28;20425;-77
2023/10/24 07:32:18;;;;;;;13.70;9.10;;;;;;;;;;5016839;28;20840;-77
2023/10/24 07:34:48;;;;;;;11.60;9.85;;;;;;;;;;5017997;28;20876;-76
2023/10/24 07:37:16;;;;;;;14.18;9.77;;;;;;;;;;5016288;28;20668;-77
2023/10/24 07:39:43;;;;;;;12.35;9.68;;;;;;;;;;5048858;28;20458;-77
2023/10/24 07:42:10;;;;;;;13.25;9.88;;;;;;;;;;5016775;28;20437;-76
2023/10/24 07:44:39;;;;;;;14.52;9.73;;;;;;;;;;5016657;28;20523;-77
2023/10/24 07:47:07;;;;;;;11.35;9.07;;;;;;;;;;5011211;28;20954;-76
2023/10/24 07:49:35;;;;;;;12.98;8.85;;;;;;;;;;5009267;28;20481;-76
2023/10/24 07:52:03;;;;;;;12.80;9.13;;;;;;;;;;5054428;28;20463;-77
2023/10/24 07:54:31;;;;;;;12.43;8.88;;;;;;;;;;5048636;28;20429;-76
2023/10/24 07:57:02;;;;;;;11.98;9.15;;;;;;;;;;5013414;28;20436;-76
2023/10/24 07:59:32;;;;;;;12.88;9.50;;;;;;;;;;5045392;28;20445;-76
2023/10/24 08:01:59;;;;;;;10.70;9.00;;;;;;;;;;5010507;28;20788;-76
2023/10/24 08:04:27;;;;;;;12.53;8.43;;;;;;;;;;5038635;28;20464;-76
2023/10/24 08:06:55;;;;;;;10.48;8.73;;;;;;;;;;5015192;28;20524;-76
2023/10/24 08:09:22;;;;;;;10.90;9.20;;;;;;;;;;5057114;28;20911;-77
2023/10/24 08:11:50;;;;;;;12.35;9.05;;;;;;;;;;5021279;28;20461;-77
2023/10/24 08:14:17;;;;;;;12.77;9.40;;;;;;;;;;5051383;28;20959;-78
2023/10/24 08:16:44;;;;;;;13.20;9.50;;;;;;;;;;5019134;28;20443;-77
2023/10/24 08:19:12;;;;;;;12.60;9.43;;;;;;;;;;5018540;28;20435;-77
2023/10/24 08:21:39;;;;;;;12.50;9.02;;;;;;;;;;5025770;28;20749;-77
2023/10/24 08:24:06;;;;;;;14.20;10.27;;;;;;;;;;5051040;28;20447;-77
2023/10/24 08:26:39;;;;;;;13.10;9.37;;;;;;;;;;5017777;28;20434;-81
2023/10/24 08:29:10;;;;;;;12.43;9.50;;;;;;;;;;5039534;28;20440;-81
2023/10/24 08:31:37;;;;;;;11.40;9.27;;;;;;;;;;5011475;28;20439;-76
2023/10/24 08:34:24;;;;;;;12.98;9.48;;;;;;;;;;5045865;28;20441;-76
2023/10/24 08:36:51;;;;;;;12.60;9.35;;;;;;;;;;5016981;28;20518;-76
2023/10/24 08:39:18;;;;;;;15.27;9.52;;;;;;;;;;5045016;28;20468;-76
2023/10/24 08:41:51;;;;;;;11.13;9.20;;;;;;;;;;5016051;28;20433;-76
2023/10/24 08:44:18;;;;;;;10.82;9.68;;;;;;;;;;5014881;28;20437;-76
2023/10/24 08:46:49;;;;;;;13.10;10.45;;;;;;;;;;5045343;28;20466;-77
2023/10/24 08:49:18;;;;;;;10.40;9.40;;;;;;;;;;5025246;28;20457;-76
2023/10/24 08:51:45;;;;;;;11.15;9.75;;;;;;;;;;5011462;28;20483;-77
2023/10/24 08:54:12;;;;;;;11.75;9.98;;;;;;;;;;5006189;28;20658;-76
2023/10/24 08:56:41;;;;;;;13.10;10.30;;;;;;;;;;5006708;28;20442;-76
2023/10/24 08:59:13;;;;;;;16.25;10.65;;;;;;;;;;5021018;28;20430;-76
2023/10/24 09:01:41;;;;;;;15.82;10.82;;;;;;;;;;5018441;28;20527;-76
2023/10/24 09:04:08;;;;;;;17.02;10.50;;;;;;;;;;5019160;28;20435;-76
2023/10/24 09:06:38;;;;;;;11.38;9.90;;;;;;;;;;5013376;28;20948;-76
2023/10/24 09:09:05;;;;;;;13.07;10.82;;;;;;;;;;5009514;28;20491;-76
2023/10/24 09:11:52;;;;;;;15.00;11.03;;;;;;;;;;5052279;28;20439;-76
2023/10/24 09:14:20;;;;;;;13.68;10.80;;;;;;;;;;5016894;28;20438;-76
2023/10/24 09:17:05;;;;;;;15.23;11.32;;;;;;;;;;5042381;28;20945;-77
2023/10/24 09:19:33;;;;;;;12.82;10.07;;;;;;;;;;5041586;28;20446;-77
2023/10/24 09:22:01;;;;;;;15.50;10.50;;;;;;;;;;5019340;28;20432;-77
2023/10/24 09:24:35;;;;;;;14.43;10.95;;;;;;;;;;5017396;28;21270;-77
2023/10/24 09:27:02;;;;;;;13.68;10.98;;;;;;;;;;5017888;28;20431;-77
2023/10/24 09:29:30;;;;;;;13.05;10.98;;;;;;;;;;5012842;28;20432;-77
2023/10/24 09:31:58;;;;;;;17.05;10.90;;;;;;;;;;5056765;28;20437;-76
2023/10/24 09:34:27;;;;;;;13.15;10.85;;;;;;;;;;5029837;28;20451;-76
2023/10/24 09:37:05;;;;;;;13.93;10.03;;;;;;;;;;5018434;28;20569;-76
2023/10/24 09:39:32;;;;;;;12.83;9.73;;;;;;;;;;5019109;28;20440;-76
2023/10/24 09:41:59;;;;;;;11.47;10.00;;;;;;;;;;5017797;28;20447;-76
2023/10/24 09:44:27;;;;;;;13.87;10.70;;;;;;;;;;5026642;28;20845;-77
2023/10/24 09:47:01;;;;;;;13.25;9.95;;;;;;;;;;5033186;28;20463;-77
2023/10/24 09:49:34;;;;;;;11.88;9.23;;;;;;;;;;5028421;28;20426;-76
2023/10/24 09:52:02;;;;;;;10.67;9.50;;;;;;;;;;5028380;28;20435;-76
2023/10/24 09:54:29;;;;;;;11.65;9.27;;;;;;;;;;5028665;28;20466;-76
2023/10/24 09:56:56;;;;;;;10.18;8.93;;;;;;;;;;5028865;28;20529;-76
2023/10/24 09:59:24;;;;;;;16.03;11.20;;;;;;;;;;5035968;28;20429;-76
2023/10/24 10:01:57;;;;;;;12.68;9.43;;;;;;;;;;5023204;28;20448;-76
2023/10/24 10:04:34;;;;;;;12.30;8.80;;;;;;;;;;5065311;28;20443;-76
2023/10/24 10:07:09;;;;;;;12.10;9.48;;;;;;;;;;5028621;28;20508;-76
2023/10/24 10:09:39;;;;;;;14.38;9.82;;;;;;;;;;5027617;28;20445;-76
2023/10/24 10:12:07;;;;;;;13.57;9.98;;;;;;;;;;5057860;28;20921;-76
2023/10/24 10:14:53;;;;;;;12.35;10.10;;;;;;;;;;5058751;28;20462;-76
2023/10/24 10:17:37;;;;;;;13.50;10.70;;;;;;;;;;5059179;28;20971;-76
2023/10/24 10:20:08;;;;;;;18.27;11.63;;;;;;;;;;5020987;28;20440;-76
2023/10/24 10:22:47;;;;;;;14.23;10.95;;;;;;;;;;5058330;28;20470;-76
2023/10/24 10:25:27;;;;;;;15.73;11.77;;;;;;;;;;5060249;28;20427;-76
2023/10/24 10:28:00;;;;;;;16.88;12.15;;;;;;;;;;5011118;28;20434;-76
2023/10/24 10:30:36;;;;;;;16.35;12.27;;;;;;;;;;5023734;28;20917;-76
2023/10/24 10:33:23;;;;;;;16.40;12.27;;;;;;;;;;5052111;28;20430;-76
2023/10/24 10:35:55;;;;;;;15.10;11.13;;;;;;;;;;5043032;28;20497;-76
2023/10/24 10:38:41;;;;;;;15.70;12.55;;;;;;;;;;5047591;28;20991;-76
2023/10/24 10:41:32;;;;;;;13.93;11.68;;;;;;;;;;5049493;28;20550;-76
2023/10/24 10:44:01;;;;;;;16.95;12.40;;;;;;;;;;5050983;28;20470;-76
2023/10/24 10:46:29;;;;;;;15.15;12.48;;;;;;;;;;5055801;28;20753;-76
2023/10/24 10:48:59;;;;;;;14.65;12.23;;;;;;;;;;5019296;28;20437;-76
2023/10/24 10:51:44;;;;;;;16.92;13.10;;;;;;;;;;5022505;28;20955;-76
2023/10/24 10:54:25;;;;;;;16.58;13.05;;;;;;;;;;5014842;28;20439;-76
2023/10/24 10:57:03;;;;;;;18.25;12.65;;;;;;;;;;5043512;28;20486;-76
2023/10/24 10:59:38;;;;;;;15.20;11.90;;;;;;;;;;5045683;28;20522;-76
2023/10/24 11:02:11;;;;;;;14.98;12.38;;;;;;;;;;5021143;28;20441;-77
2023/10/24 11:04:38;;;;;;;15.43;12.20;;;;;;;;;;5052854;28;20503;-76
2023/10/24 11:07:06;;;;;;;14.25;12.02;;;;;;;;;;5020525;28;20458;-75
2023/10/24 11:09:38;;;;;;;15.18;11.88;;;;;;;;;;5034941;28;20423;-83
2023/10/24 11:12:19;;;;;;;14.82;12.35;;;;;;;;;;5032677;28;20430;-82
2023/10/24 11:15:16;;;;;;;15.20;12.05;;;;;;;;;;5032854;28;20450;-81
2023/10/24 11:17:46;;;;;;;12.88;11.43;;;;;;;;;;5068402;28;20434;-82
2023/10/24 11:20:13;;;;;;;13.40;11.30;;;;;;;;;;5030179;28;20431;-83
2023/10/24 11:22:50;;;;;;;14.35;11.38;;;;;;;;;;5050937;28;20508;-83
2023/10/24 11:25:19;;;;;;;13.77;10.95;;;;;;;;;;5024481;28;20474;-82
2023/10/24 11:27:50;;;;;;;12.93;10.48;;;;;;;;;;5012473;28;20442;-83
2023/10/24 11:30:17;;;;;;;12.98;10.60;;;;;;;;;;5021758;28;20484;-82
2023/10/24 11:32:44;;;;;;;12.95;10.60;;;;;;;;;;5018545;28;20504;-83
2023/10/24 11:35:11;;;;;;;13.20;10.43;;;;;;;;;;5018849;28;20441;-82
2023/10/24 11:37:41;;;;;;;15.18;10.38;;;;;;;;;;5012083;28;20878;-83
2023/10/24 11:40:09;;;;;;;13.20;9.68;;;;;;;;;;5046003;28;20438;-82
2023/10/24 11:42:36;;;;;;;13.48;9.32;;;;;;;;;;5019885;28;20484;-83
2023/10/24 11:45:03;;;;;;;10.52;8.68;;;;;;;;;;5013428;28;20771;-82
2023/10/24 11:47:36;;;;;;;11.43;8.80;;;;;;;;;;5011892;28;20436;-83
2023/10/24 11:50:03;;;;;;;9.10;8.20;;;;;;;;;;5015904;28;20436;-84
2023/10/24 11:52:31;;;;;;;11.15;8.05;;;;;;;;;;5051670;28;20525;-83
2023/10/24 11:54:58;;;;;;;9.23;7.20;;;;;;;;;;5063610;28;20442;-82
2023/10/24 11:57:25;;;;;;;8.75;6.65;;;;;;;;;;5019055;28;20438;-83
2023/10/24 11:59:54;;;;;;;7.82;6.63;;;;;;;;;;5024013;28;20485;-83
2023/10/24 12:02:21;;;;;;;7.57;6.77;;;;;;;;;;5021193;28;20521;-83
2023/10/24 12:04:52;;;;;;;10.15;7.15;;;;;;;;;;5054636;28;20499;-84
2023/10/24 12:07:19;;;;;;;8.37;6.27;;;;;;;;;;5018718;28;20434;-82
2023/10/24 12:09:46;;;;;;;7.32;6.63;;;;;;;;;;5023198;28;20550;-83
2023/10/24 12:12:14;;;;;;;7.57;6.88;;;;;;;;;;5049929;28;20550;-82
2023/10/24 12:14:42;;;;;;;7.72;6.90;;;;;;;;;;5017935;28;20545;-82
2023/10/24 12:17:09;;;;;;;8.55;6.90;;;;;;;;;;5019874;28;20801;-82
2023/10/24 12:19:37;;;;;;;7.45;6.75;;;;;;;;;;5042223;28;20427;-82
2023/10/24 12:22:04;;;;;;;7.93;7.13;;;;;;;;;;5039031;28;20654;-81
2023/10/24 12:24:31;;;;;;;7.82;7.10;;;;;;;;;;5066216;28;20460;-83
2023/10/24 12:26:58;;;;;;;10.30;7.18;;;;;;;;;;5034827;28;20562;-81
2023/10/24 12:29:26;;;;;;;8.73;7.57;;;;;;;;;;5024048;28;20447;-82
2023/10/24 12:31:53;;;;;;;9.20;7.70;;;;;;;;;;5039808;28;20516;-82
2023/10/24 12:34:20;;;;;;;10.02;7.65;;;;;;;;;;5072426;28;20417;-82
2023/10/24 12:36:52;;;;;;;8.23;7.43;;;;;;;;;;5068329;28;20431;-82
2023/10/24 12:39:21;;;;;;;12.50;8.10;;;;;;;;;;5073944;28;20427;-82
2023/10/24 12:41:48;;;;;;;7.32;6.47;;;;;;;;;;5040596;28;20451;-82
2023/10/24 12:44:22;;;;;;;7.20;6.47;;;;;;;;;;5029521;28;20439;-81
2023/10/24 12:46:49;;;;;;;6.75;6.00;;;;;;;;;;5073335;28;20424;-81
2023/10/24 12:49:16;;;;;;;6.40;5.78;;;;;;;;;;5038936;28;20448;-83
2023/10/24 12:51:46;;;;;;;6.40;5.80;;;;;;;;;;5068427;28;20491;-82
2023/10/24 12:54:13;;;;;;;7.75;6.25;;;;;;;;;;5040596;28;20459;-82
2023/10/24 12:56:40;;;;;;;6.35;5.85;;;;;;;;;;5051517;28;20456;-83
2023/10/24 12:59:07;;;;;;;6.07;5.57;;;;;;;;;;5045254;28;20455;-83
2023/10/24 13:01:37;;;;;;;6.45;5.85;;;;;;;;;;5048130;28;20424;-82
2023/10/24 13:04:05;;;;;;;7.30;6.60;;;;;;;;;;5048963;28;20706;-82
2023/10/24 13:06:33;;;;;;;6.32;5.80;;;;;;;;;;5041779;28;20510;-82
2023/10/24 13:09:08;;;;;;;7.60;6.90;;;;;;;;;;5045959;28;20994;-82
2023/10/24 13:11:37;;;;;;;9.20;7.80;;;;;;;;;;5031615;28;20438;-82
2023/10/24 13:14:07;;;;;;;8.60;7.80;;;;;;;;;;5031444;28;20535;-82
2023/10/24 13:16:34;;;;;;;9.75;8.77;;;;;;;;;;5051829;28;20890;-81
2023/10/24 13:19:02;;;;;;;9.37;8.50;;;;;;;;;;5015778;28;20493;-82
2023/10/24 13:21:35;;;;;;;10.00;9.10;;;;;;;;;;5059315;28;20866;-82
2023/10/24 13:24:04;;;;;;;11.13;9.57;;;;;;;;;;5021151;28;20504;-82
2023/10/24 13:26:32;;;;;;;12.13;10.82;;;;;;;;;;5052633;28;20435;-81
2023/10/24 13:28:59;;;;;;;12.82;11.52;;;;;;;;;;5025570;28;20517;-83
2023/10/24 13:31:26;;;;;;;12.63;11.20;;;;;;;;;;5053812;28;20454;-82
2023/10/24 13:33:53;;;;;;;14.23;12.18;;;;;;;;;;5015930;28;20434;-83
2023/10/24 13:36:46;;;;;;;14.87;12.30;;;;;;;;;;5042613;28;20869;-83
2023/10/24 13:39:20;;;;;;;15.85;13.10;;;;;;;;;;5026075;28;20442;-81
2023/10/24 13:41:50;;;;;;;19.77;13.65;;;;;;;;;;5032255;28;20778;-82
2023/10/24 13:44:17;;;;;;;17.40;14.07;;;;;;;;;;5030364;28;20467;-82
2023/10/24 13:46:44;;;;;;;16.00;13.90;;;;;;;;;;5060487;28;20438;-82
2023/10/24 13:49:12;;;;;;;18.52;14.50;;;;;;;;;;5026461;28;20548;-81
2023/10/24 13:51:43;;;;;;;18.55;14.23;;;;;;;;;;5024102;28;20482;-81
2023/10/24 13:54:12;;;;;;;18.57;14.60;;;;;;;;;;5024704;28;20900;-81
2023/10/24 13:56:39;;;;;;;16.33;14.38;;;;;;;;;;5058215;28;20434;-82
2023/10/24 13:59:06;;;;;;;16.45;14.50;;;;;;;;;;5026951;28;20443;-82
2023/10/24 14:01:39;;;;;;;14.60;13.10;;;;;;;;;;5053335;28;20516;-81
2023/10/24 14:04:06;;;;;;;16.50;13.40;;;;;;;;;;5023524;28;20945;-77
2023/10/24 14:06:33;;;;;;;14.63;13.05;;;;;;;;;;5026782;28;20536;-77
2023/10/24 14:09:01;;;;;;;15.13;13.30;;;;;;;;;;5015762;28;20435;-77
2023/10/24 14:11:31;;;;;;;14.85;12.93;;;;;;;;;;5021301;28;20438;-77
2023/10/24 14:13:58;;;;;;;15.40;12.80;;;;;;;;;;5017810;28;20431;-77
2023/10/24 14:16:25;;;;;;;14.52;12.82;;;;;;;;;;5041495;28;20924;-77
2023/10/24 14:18:55;;;;;;;14.83;13.30;;;;;;;;;;5052353;28;20432;-77
2023/10/24 14:21:22;;;;;;;15.33;13.27;;;;;;;;;;5020635;28;20439;-78
2023/10/24 14:23:49;;;;;;;15.37;13.13;;;;;;;;;;5048356;28;20957;-77
2023/10/24 14:26:16;;;;;;;14.98;13.18;;;;;;;;;;5019778;28;20948;-78
2023/10/24 14:28:43;;;;;;;14.60;13.10;;;;;;;;;;5046240;28;20512;-79
2023/10/24 14:31:10;;;;;;;15.10;13.20;;;;;;;;;;5038953;28;20993;-76
2023/10/24 14:33:38;;;;;;;15.52;13.25;;;;;;;;;;5053194;28;20940;-78
2023/10/24 14:36:06;;;;;;;16.73;13.90;;;;;;;;;;5021002;28;20444;-77
2023/10/24 14:38:33;;;;;;;15.45;13.68;;;;;;;;;;5049403;28;20842;-80
2023/10/24 14:41:00;;;;;;;17.35;13.77;;;;;;;;;;5046681;28;20434;-80